sensor_id;sensor_type;location;lat;lon;timestamp;temperature;humidity
11599;DHT22;5855;48.840;9.188;2024-03-08T00:01:38;3.00;99.90
11599;DHT22;5855;48.840;9.188;2024-03-08T00:04:05;3.00;99.90
11599;DHT22;5855;48.840;9.188;2024-03-08T00:06:32;3.00;99.90
11599;DHT22;5855;48.840;9.188;2024-03-08T00:08:59;2.90;99.90
11599;DHT22;5855;48.840;9.188;2024-03-08T00:11:26;2.90;99.90
11599;DHT22;5855;48.840;9.188;2024-03-08T00:13:54;2.90;99.90
11599;DHT22;5855;48.840;9.188;2024-03-08T00:16:21;2.80;99.90
11599;DHT22;5855;48.840;9.188;2024-03-08T00:18:48;2.80;99.90
11599;DHT22;5855;48.840;9.188;2024-03-08T00:21:15;2.80;99.90
11599;DHT22;5855;48.840;9.188;2024-03-08T00:23:42;2.70;99.90
11599;DHT22;5855;48.840;9.188;2024-03-08T00:26:09;2.70;99.90
11599;DHT22;5855;48.840;9.188;2024-03-08T00:28:36;2.60;99.90
11599;DHT22;5855;48.840;9.188;2024-03-08T00:31:04;2.60;99.90
11599;DHT22;5855;48.840;9.188;2024-03-08T00:33:32;2.50;99.90
11599;DHT22;5855;48.840;9.188;2024-03-08T00:35:59;2.50;99.90
11599;DHT22;5855;48.840;9.188;2024-03-08T00:38:26;2.50;99.90
11599;DHT22;5855;48.840;9.188;2024-03-08T00:40:52;2.40;99.90
11599;DHT22;5855;48.840;9.188;2024-03-08T00:43:19;2.30;99.90
11599;DHT22;5855;48.840;9.188;2024-03-08T00:45:46;2.30;99.90
11599;DHT22;5855;48.840;9.188;2024-03-08T00:48:14;2.30;99.90
11599;DHT22;5855;48.840;9.188;2024-03-08T00:50:41;2.30;99.90
11599;DHT22;5855;48.840;9.188;2024-03-08T00:53:11;2.30;99.90
11599;DHT22;5855;48.840;9.188;2024-03-08T00:55:38;2.30;99.90
11599;DHT22;5855;48.840;9.188;2024-03-08T00:58:04;2.30;99.90
11599;DHT22;5855;48.840;9.188;2024-03-08T01:00:31;2.30;99.90
11599;DHT22;5855;48.840;9.188;2024-03-08T01:02:58;2.30;99.90
11599;DHT22;5855;48.840;9.188;2024-03-08T01:05:26;2.30;99.90
11599;DHT22;5855;48.840;9.188;2024-03-08T01:07:53;2.30;99.90
11599;DHT22;5855;48.840;9.188;2024-03-08T01:10:20;2.40;99.90
11599;DHT22;5855;48.840;9.188;2024-03-08T01:12:47;2.30;99.90
11599;DHT22;5855;48.840;9.188;2024-03-08T01:15:15;2.20;99.90
11599;DHT22;5855;48.840;9.188;2024-03-08T01:17:42;2.20;99.90
11599;DHT22;5855;48.840;9.188;2024-03-08T01:20:10;2.10;99.90
11599;DHT22;5855;48.840;9.188;2024-03-08T01:22:39;2.10;99.90
11599;DHT22;5855;48.840;9.188;2024-03-08T01:25:07;2.10;99.90
11599;DHT22;5855;48.840;9.188;2024-03-08T01:27:34;2.10;99.90
11599;DHT22;5855;48.840;9.188;2024-03-08T01:30:02;2.00;99.90
11599;DHT22;5855;48.840;9.188;2024-03-08T01:32:30;2.00;99.90
11599;DHT22;5855;48.840;9.188;2024-03-08T01:34:56;2.00;99.90
11599;DHT22;5855;48.840;9.188;2024-03-08T01:37:23;2.00;99.90
11599;DHT22;5855;48.840;9.188;2024-03-08T01:39:51;1.90;99.90
11599;DHT22;5855;48.840;9.188;2024-03-08T01:42:18;1.90;99.90
11599;DHT22;5855;48.840;9.188;2024-03-08T01:44:45;1.90;99.90
11599;DHT22;5855;48.840;9.188;2024-03-08T01:47:12;1.90;99.90
11599;DHT22;5855;48.840;9.188;2024-03-08T01:49:39;1.80;99.90
11599;DHT22;5855;48.840;9.188;2024-03-08T01:52:06;1.80;99.90
11599;DHT22;5855;48.840;9.188;2024-03-08T01:54:33;1.80;99.90
11599;DHT22;5855;48.840;9.188;2024-03-08T01:57:02;1.80;99.90
11599;DHT22;5855;48.840;9.188;2024-03-08T01:59:31;1.80;99.90
11599;DHT22;5855;48.840;9.188;2024-03-08T02:02:01;1.80;99.90
11599;DHT22;5855;48.840;9.188;2024-03-08T02:04:28;1.80;99.90
11599;DHT22;5855;48.840;9.188;2024-03-08T02:06:56;1.80;99.90
11599;DHT22;5855;48.840;9.188;2024-03-08T02:09:24;1.80;99.90
11599;DHT22;5855;48.840;9.188;2024-03-08T02:11:51;1.80;99.90
11599;DHT22;5855;48.840;9.188;2024-03-08T02:14:21;1.80;99.90
11599;DHT22;5855;48.840;9.188;2024-03-08T02:16:49;1.80;99.90
11599;DHT22;5855;48.840;9.188;2024-03-08T02:19:16;1.80;99.90
11599;DHT22;5855;48.840;9.188;2024-03-08T02:21:44;1.70;99.90
11599;DHT22;5855;48.840;9.188;2024-03-08T02:24:13;1.70;99.90
11599;DHT22;5855;48.840;9.188;2024-03-08T02:26:40;1.70;99.90
11599;DHT22;5855;48.840;9.188;2024-03-08T02:29:08;1.60;99.90
11599;DHT22;5855;48.840;9.188;2024-03-08T02:31:35;1.60;99.90
11599;DHT22;5855;48.840;9.188;2024-03-08T02:34:02;1.60;99.90
11599;DHT22;5855;48.840;9.188;2024-03-08T02:36:28;1.60;99.90
11599;DHT22;5855;48.840;9.188;2024-03-08T02:38:56;1.60;99.90
11599;DHT22;5855;48.840;9.188;2024-03-08T02:41:23;1.60;99.90
11599;DHT22;5855;48.840;9.188;2024-03-08T02:43:50;1.60;99.90
11599;DHT22;5855;48.840;9.188;2024-03-08T02:46:17;1.50;99.90
11599;DHT22;5855;48.840;9.188;2024-03-08T02:48:44;1.50;99.90
11599;DHT22;5855;48.840;9.188;2024-03-08T02:51:12;1.50;99.90
11599;DHT22;5855;48.840;9.188;2024-03-08T02:53:39;1.50;99.90
11599;DHT22;5855;48.840;9.188;2024-03-08T02:56:08;1.50;99.90
11599;DHT22;5855;48.840;9.188;2024-03-08T02:58:38;1.40;99.90
11599;DHT22;5855;48.840;9.188;2024-03-08T03:01:05;1.50;99.90
11599;DHT22;5855;48.840;9.188;2024-03-08T03:03:32;1.40;99.90
11599;DHT22;5855;48.840;9.188;2024-03-08T03:05:58;1.50;99.90
11599;DHT22;5855;48.840;9.188;2024-03-08T03:08:26;1.50;99.90
11599;DHT22;5855;48.840;9.188;2024-03-08T03:10:53;1.50;99.90
11599;DHT22;5855;48.840;9.188;2024-03-08T03:13:23;1.50;99.90
11599;DHT22;5855;48.840;9.188;2024-03-08T03:15:50;1.50;99.90
11599;DHT22;5855;48.840;9.188;2024-03-08T03:18:17;1.50;99.90
11599;DHT22;5855;48.840;9.188;2024-03-08T03:20:47;1.40;99.90
11599;DHT22;5855;48.840;9.188;2024-03-08T03:23:14;1.40;99.90
11599;DHT22;5855;48.840;9.188;2024-03-08T03:25:45;1.40;99.90
11599;DHT22;5855;48.840;9.188;2024-03-08T03:28:12;1.40;99.90
11599;DHT22;5855;48.840;9.188;2024-03-08T03:30:44;1.30;99.90
11599;DHT22;5855;48.840;9.188;2024-03-08T03:33:12;1.30;99.90
11599;DHT22;5855;48.840;9.188;2024-03-08T03:35:40;1.20;99.90
11599;DHT22;5855;48.840;9.188;2024-03-08T03:38:08;1.20;99.90
11599;DHT22;5855;48.840;9.188;2024-03-08T03:40:36;1.20;99.90
11599;DHT22;5855;48.840;9.188;2024-03-08T03:43:03;1.20;99.90
11599;DHT22;5855;48.840;9.188;2024-03-08T03:45:31;1.10;99.90
11599;DHT22;5855;48.840;9.188;2024-03-08T03:48:02;1.10;99.90
11599;DHT22;5855;48.840;9.188;2024-03-08T03:50:29;1.10;99.90
11599;DHT22;5855;48.840;9.188;2024-03-08T03:52:56;1.10;99.90
11599;DHT22;5855;48.840;9.188;2024-03-08T03:55:23;1.00;99.90
11599;DHT22;5855;48.840;9.188;2024-03-08T03:57:50;1.00;99.90
11599;DHT22;5855;48.840;9.188;2024-03-08T04:00:18;1.00;99.90
11599;DHT22;5855;48.840;9.188;2024-03-08T04:02:45;1.00;99.90
11599;DHT22;5855;48.840;9.188;2024-03-08T04:05:13;1.00;99.90
11599;DHT22;5855;48.840;9.188;2024-03-08T04:07:40;0.90;99.90
11599;DHT22;5855;48.840;9.188;2024-03-08T04:10:10;0.90;99.90
11599;DHT22;5855;48.840;9.188;2024-03-08T04:12:37;0.90;99.90
11599;DHT22;5855;48.840;9.188;2024-03-08T04:15:05;0.80;99.90
11599;DHT22;5855;48.840;9.188;2024-03-08T04:17:32;0.90;99.90
11599;DHT22;5855;48.840;9.188;2024-03-08T04:20:01;0.80;99.90
11599;DHT22;5855;48.840;9.188;2024-03-08T04:22:34;0.80;99.90
11599;DHT22;5855;48.840;9.188;2024-03-08T04:25:01;0.80;99.90
11599;DHT22;5855;48.840;9.188;2024-03-08T04:27:28;0.80;99.90
11599;DHT22;5855;48.840;9.188;2024-03-08T04:29:55;0.70;99.90
11599;DHT22;5855;48.840;9.188;2024-03-08T04:32:22;0.70;99.90
11599;DHT22;5855;48.840;9.188;2024-03-08T04:34:49;0.70;99.90
11599;DHT22;5855;48.840;9.188;2024-03-08T04:37:16;0.70;99.90
11599;DHT22;5855;48.840;9.188;2024-03-08T04:39:48;0.70;99.90
11599;DHT22;5855;48.840;9.188;2024-03-08T04:42:16;0.80;99.90
11599;DHT22;5855;48.840;9.188;2024-03-08T04:44:43;0.90;99.90
11599;DHT22;5855;48.840;9.188;2024-03-08T04:47:10;0.90;99.90
11599;DHT22;5855;48.840;9.188;2024-03-08T04:49:37;0.90;99.90
11599;DHT22;5855;48.840;9.188;2024-03-08T04:52:04;0.90;99.90
11599;DHT22;5855;48.840;9.188;2024-03-08T04:54:34;0.90;99.90
11599;DHT22;5855;48.840;9.188;2024-03-08T04:57:02;1.00;99.90
11599;DHT22;5855;48.840;9.188;2024-03-08T04:59:30;1.00;99.90
11599;DHT22;5855;48.840;9.188;2024-03-08T05:01:57;1.00;99.90
11599;DHT22;5855;48.840;9.188;2024-03-08T05:04:25;1.10;99.90
11599;DHT22;5855;48.840;9.188;2024-03-08T05:06:52;1.00;99.90
11599;DHT22;5855;48.840;9.188;2024-03-08T05:09:19;1.00;99.90
11599;DHT22;5855;48.840;9.188;2024-03-08T05:11:47;1.00;99.90
11599;DHT22;5855;48.840;9.188;2024-03-08T05:14:15;1.00;99.90
11599;DHT22;5855;48.840;9.188;2024-03-08T05:16:45;1.00;99.90
11599;DHT22;5855;48.840;9.188;2024-03-08T05:19:14;1.00;99.90
11599;DHT22;5855;48.840;9.188;2024-03-08T05:21:42;1.00;99.90
11599;DHT22;5855;48.840;9.188;2024-03-08T05:24:09;1.00;99.90
11599;DHT22;5855;48.840;9.188;2024-03-08T05:26:36;1.00;99.90
11599;DHT22;5855;48.840;9.188;2024-03-08T05:29:03;1.00;99.90
11599;DHT22;5855;48.840;9.188;2024-03-08T05:31:36;1.00;99.90
11599;DHT22;5855;48.840;9.188;2024-03-08T05:34:05;1.00;99.90
11599;DHT22;5855;48.840;9.188;2024-03-08T05:36:35;1.00;99.90
11599;DHT22;5855;48.840;9.188;2024-03-08T05:39:02;1.00;99.90
11599;DHT22;5855;48.840;9.188;2024-03-08T05:41:31;1.00;99.90
11599;DHT22;5855;48.840;9.188;2024-03-08T05:43:58;1.00;99.90
11599;DHT22;5855;48.840;9.188;2024-03-08T05:46:25;1.00;99.90
11599;DHT22;5855;48.840;9.188;2024-03-08T05:48:53;1.00;99.90
11599;DHT22;5855;48.840;9.188;2024-03-08T05:51:20;1.00;99.90
11599;DHT22;5855;48.840;9.188;2024-03-08T05:53:47;1.00;99.90
11599;DHT22;5855;48.840;9.188;2024-03-08T05:56:14;1.00;99.90
11599;DHT22;5855;48.840;9.188;2024-03-08T05:58:41;1.00;99.90
11599;DHT22;5855;48.840;9.188;2024-03-08T06:01:06;1.00;99.90
11599;DHT22;5855;48.840;9.188;2024-03-08T06:03:33;1.00;99.90
11599;DHT22;5855;48.840;9.188;2024-03-08T06:06:02;0.90;99.90
11599;DHT22;5855;48.840;9.188;2024-03-08T06:08:29;0.90;99.90
11599;DHT22;5855;48.840;9.188;2024-03-08T06:10:56;0.90;99.90
11599;DHT22;5855;48.840;9.188;2024-03-08T06:13:24;0.80;99.90
11599;DHT22;5855;48.840;9.188;2024-03-08T06:15:51;0.90;99.90
11599;DHT22;5855;48.840;9.188;2024-03-08T06:18:18;0.90;99.90
11599;DHT22;5855;48.840;9.188;2024-03-08T06:20:46;1.00;99.90
11599;DHT22;5855;48.840;9.188;2024-03-08T06:23:14;1.10;99.90
11599;DHT22;5855;48.840;9.188;2024-03-08T06:25:43;1.20;99.90
11599;DHT22;5855;48.840;9.188;2024-03-08T06:28:10;1.20;99.90
11599;DHT22;5855;48.840;9.188;2024-03-08T06:30:36;1.20;99.90
11599;DHT22;5855;48.840;9.188;2024-03-08T06:33:03;1.30;99.90
11599;DHT22;5855;48.840;9.188;2024-03-08T06:35:30;1.40;99.90
11599;DHT22;5855;48.840;9.188;2024-03-08T06:37:58;1.40;99.90
11599;DHT22;5855;48.840;9.188;2024-03-08T06:40:26;1.50;99.90
11599;DHT22;5855;48.840;9.188;2024-03-08T06:42:53;1.60;99.90
11599;DHT22;5855;48.840;9.188;2024-03-08T06:45:20;1.60;99.90
11599;DHT22;5855;48.840;9.188;2024-03-08T06:47:49;1.70;99.90
11599;DHT22;5855;48.840;9.188;2024-03-08T06:50:15;1.80;99.90
11599;DHT22;5855;48.840;9.188;2024-03-08T06:52:42;1.80;99.90
11599;DHT22;5855;48.840;9.188;2024-03-08T06:55:10;1.90;99.90
11599;DHT22;5855;48.840;9.188;2024-03-08T06:57:39;2.00;99.90
11599;DHT22;5855;48.840;9.188;2024-03-08T07:00:07;2.10;99.90
11599;DHT22;5855;48.840;9.188;2024-03-08T07:02:37;2.30;99.90
11599;DHT22;5855;48.840;9.188;2024-03-08T07:05:05;2.40;99.90
11599;DHT22;5855;48.840;9.188;2024-03-08T07:07:35;2.50;99.90
11599;DHT22;5855;48.840;9.188;2024-03-08T07:10:03;2.50;99.90
11599;DHT22;5855;48.840;9.188;2024-03-08T07:12:30;2.60;99.90
11599;DHT22;5855;48.840;9.188;2024-03-08T07:14:58;2.70;99.90
11599;DHT22;5855;48.840;9.188;2024-03-08T07:17:25;2.80;99.90
11599;DHT22;5855;48.840;9.188;2024-03-08T07:19:51;2.80;99.90
11599;DHT22;5855;48.840;9.188;2024-03-08T07:22:19;2.80;99.90
11599;DHT22;5855;48.840;9.188;2024-03-08T07:24:47;2.90;99.90
11599;DHT22;5855;48.840;9.188;2024-03-08T07:27:30;2.90;99.90
11599;DHT22;5855;48.840;9.188;2024-03-08T07:29:58;2.90;99.90
11599;DHT22;5855;48.840;9.188;2024-03-08T07:32:26;3.00;99.90
11599;DHT22;5855;48.840;9.188;2024-03-08T07:34:55;3.00;99.90
11599;DHT22;5855;48.840;9.188;2024-03-08T07:37:22;3.00;99.90
11599;DHT22;5855;48.840;9.188;2024-03-08T07:39:49;3.10;99.90
11599;DHT22;5855;48.840;9.188;2024-03-08T07:42:16;3.10;99.90
11599;DHT22;5855;48.840;9.188;2024-03-08T07:44:42;3.20;99.90
11599;DHT22;5855;48.840;9.188;2024-03-08T07:47:12;3.20;99.90
11599;DHT22;5855;48.840;9.188;2024-03-08T07:49:39;3.30;99.90
11599;DHT22;5855;48.840;9.188;2024-03-08T07:52:06;3.40;99.90
11599;DHT22;5855;48.840;9.188;2024-03-08T07:54:33;3.40;99.90
11599;DHT22;5855;48.840;9.188;2024-03-08T07:57:01;3.40;99.90
11599;DHT22;5855;48.840;9.188;2024-03-08T07:59:29;3.40;99.90
11599;DHT22;5855;48.840;9.188;2024-03-08T08:01:56;3.40;99.90
11599;DHT22;5855;48.840;9.188;2024-03-08T08:04:24;3.40;99.90
11599;DHT22;5855;48.840;9.188;2024-03-08T08:06:52;3.40;99.90
11599;DHT22;5855;48.840;9.188;2024-03-08T08:09:20;3.40;99.90
11599;DHT22;5855;48.840;9.188;2024-03-08T08:11:54;3.40;99.90
11599;DHT22;5855;48.840;9.188;2024-03-08T08:14:21;3.50;99.90
11599;DHT22;5855;48.840;9.188;2024-03-08T08:16:48;3.50;99.90
11599;DHT22;5855;48.840;9.188;2024-03-08T08:19:17;3.50;99.90
11599;DHT22;5855;48.840;9.188;2024-03-08T08:21:45;3.60;99.90
11599;DHT22;5855;48.840;9.188;2024-03-08T08:24:12;3.60;99.90
11599;DHT22;5855;48.840;9.188;2024-03-08T08:26:39;3.70;99.90
11599;DHT22;5855;48.840;9.188;2024-03-08T08:29:06;3.70;99.90
11599;DHT22;5855;48.840;9.188;2024-03-08T08:31:33;3.70;99.90
11599;DHT22;5855;48.840;9.188;2024-03-08T08:33:59;3.70;99.90
11599;DHT22;5855;48.840;9.188;2024-03-08T08:36:28;3.80;99.90
11599;DHT22;5855;48.840;9.188;2024-03-08T08:38:58;3.70;99.90
11599;DHT22;5855;48.840;9.188;2024-03-08T08:41:25;3.70;99.90
11599;DHT22;5855;48.840;9.188;2024-03-08T08:43:52;3.70;99.90
11599;DHT22;5855;48.840;9.188;2024-03-08T08:46:19;3.70;99.90
11599;DHT22;5855;48.840;9.188;2024-03-08T08:48:47;3.80;99.90
11599;DHT22;5855;48.840;9.188;2024-03-08T08:51:14;3.70;99.90
11599;DHT22;5855;48.840;9.188;2024-03-08T08:53:41;3.70;99.90
11599;DHT22;5855;48.840;9.188;2024-03-08T08:56:12;3.80;99.90
11599;DHT22;5855;48.840;9.188;2024-03-08T08:58:39;3.80;99.90
11599;DHT22;5855;48.840;9.188;2024-03-08T09:01:07;3.70;99.90
11599;DHT22;5855;48.840;9.188;2024-03-08T09:03:35;3.80;99.90
11599;DHT22;5855;48.840;9.188;2024-03-08T09:06:03;3.90;99.90
11599;DHT22;5855;48.840;9.188;2024-03-08T09:08:30;3.80;99.90
11599;DHT22;5855;48.840;9.188;2024-03-08T09:10:57;3.90;99.90
11599;DHT22;5855;48.840;9.188;2024-03-08T09:13:26;4.00;99.90
11599;DHT22;5855;48.840;9.188;2024-03-08T09:15:53;3.90;99.90
11599;DHT22;5855;48.840;9.188;2024-03-08T09:18:20;4.00;99.90
11599;DHT22;5855;48.840;9.188;2024-03-08T09:20:47;4.10;99.90
11599;DHT22;5855;48.840;9.188;2024-03-08T09:23:13;4.20;99.90
11599;DHT22;5855;48.840;9.188;2024-03-08T09:25:42;4.20;99.90
11599;DHT22;5855;48.840;9.188;2024-03-08T09:28:09;4.10;99.90
11599;DHT22;5855;48.840;9.188;2024-03-08T09:30:38;3.90;99.90
11599;DHT22;5855;48.840;9.188;2024-03-08T09:33:06;3.90;99.90
11599;DHT22;5855;48.840;9.188;2024-03-08T09:35:33;3.90;99.90
11599;DHT22;5855;48.840;9.188;2024-03-08T09:37:59;4.00;99.90
11599;DHT22;5855;48.840;9.188;2024-03-08T09:40:26;4.20;99.90
11599;DHT22;5855;48.840;9.188;2024-03-08T09:42:53;4.30;99.90
11599;DHT22;5855;48.840;9.188;2024-03-08T09:45:21;4.50;99.90
11599;DHT22;5855;48.840;9.188;2024-03-08T09:47:50;4.60;99.90
11599;DHT22;5855;48.840;9.188;2024-03-08T09:50:18;4.60;99.90
11599;DHT22;5855;48.840;9.188;2024-03-08T09:52:48;4.70;99.90
11599;DHT22;5855;48.840;9.188;2024-03-08T09:55:16;4.80;99.90
11599;DHT22;5855;48.840;9.188;2024-03-08T09:57:48;4.80;99.90
11599;DHT22;5855;48.840;9.188;2024-03-08T10:00:29;4.90;99.90
11599;DHT22;5855;48.840;9.188;2024-03-08T10:03:00;4.90;99.90
11599;DHT22;5855;48.840;9.188;2024-03-08T10:05:27;5.00;99.90
11599;DHT22;5855;48.840;9.188;2024-03-08T10:07:54;4.90;99.90
11599;DHT22;5855;48.840;9.188;2024-03-08T10:10:21;5.00;99.90
11599;DHT22;5855;48.840;9.188;2024-03-08T10:12:48;5.10;99.90
11599;DHT22;5855;48.840;9.188;2024-03-08T10:15:15;5.20;99.90
11599;DHT22;5855;48.840;9.188;2024-03-08T10:17:43;5.10;99.90
11599;DHT22;5855;48.840;9.188;2024-03-08T10:20:14;5.10;99.90
11599;DHT22;5855;48.840;9.188;2024-03-08T10:22:41;5.10;99.90
11599;DHT22;5855;48.840;9.188;2024-03-08T10:25:10;5.30;99.90
11599;DHT22;5855;48.840;9.188;2024-03-08T10:27:38;5.30;99.90
11599;DHT22;5855;48.840;9.188;2024-03-08T10:30:07;5.20;99.90
11599;DHT22;5855;48.840;9.188;2024-03-08T10:32:38;5.20;99.90
11599;DHT22;5855;48.840;9.188;2024-03-08T10:35:06;5.50;99.90
11599;DHT22;5855;48.840;9.188;2024-03-08T10:37:43;5.40;99.90
11599;DHT22;5855;48.840;9.188;2024-03-08T10:40:16;5.60;99.90
11599;DHT22;5855;48.840;9.188;2024-03-08T10:42:52;5.90;99.90
11599;DHT22;5855;48.840;9.188;2024-03-08T10:45:28;5.80;99.90
11599;DHT22;5855;48.840;9.188;2024-03-08T10:48:04;5.90;99.90
11599;DHT22;5855;48.840;9.188;2024-03-08T10:50:36;6.20;99.90
11599;DHT22;5855;48.840;9.188;2024-03-08T10:53:06;5.90;99.90
11599;DHT22;5855;48.840;9.188;2024-03-08T10:55:33;5.80;99.90
11599;DHT22;5855;48.840;9.188;2024-03-08T10:58:03;5.80;99.90
11599;DHT22;5855;48.840;9.188;2024-03-08T11:00:31;6.10;99.90
11599;DHT22;5855;48.840;9.188;2024-03-08T11:02:58;6.10;99.90
11599;DHT22;5855;48.840;9.188;2024-03-08T11:05:32;6.50;99.90
11599;DHT22;5855;48.840;9.188;2024-03-08T11:08:08;6.70;99.90
11599;DHT22;5855;48.840;9.188;2024-03-08T11:10:47;6.80;99.90
11599;DHT22;5855;48.840;9.188;2024-03-08T11:13:34;7.00;99.90
11599;DHT22;5855;48.840;9.188;2024-03-08T11:16:02;7.00;99.90
11599;DHT22;5855;48.840;9.188;2024-03-08T11:18:32;7.10;99.90
11599;DHT22;5855;48.840;9.188;2024-03-08T11:21:02;7.20;99.90
11599;DHT22;5855;48.840;9.188;2024-03-08T11:23:33;7.50;99.90
11599;DHT22;5855;48.840;9.188;2024-03-08T11:26:01;7.70;99.90
11599;DHT22;5855;48.840;9.188;2024-03-08T11:28:31;7.70;99.90
11599;DHT22;5855;48.840;9.188;2024-03-08T11:31:23;8.00;99.90
11599;DHT22;5855;48.840;9.188;2024-03-08T11:33:51;8.10;99.90
11599;DHT22;5855;48.840;9.188;2024-03-08T11:36:21;8.00;99.90
11599;DHT22;5855;48.840;9.188;2024-03-08T11:38:50;8.40;99.90
11599;DHT22;5855;48.840;9.188;2024-03-08T11:41:19;8.30;99.90
11599;DHT22;5855;48.840;9.188;2024-03-08T11:43:46;8.60;99.90
11599;DHT22;5855;48.840;9.188;2024-03-08T11:46:14;9.00;99.90
11599;DHT22;5855;48.840;9.188;2024-03-08T11:48:42;9.70;99.90
11599;DHT22;5855;48.840;9.188;2024-03-08T11:51:10;9.70;99.90
11599;DHT22;5855;48.840;9.188;2024-03-08T11:53:38;10.40;99.90
11599;DHT22;5855;48.840;9.188;2024-03-08T11:56:08;10.10;99.90
11599;DHT22;5855;48.840;9.188;2024-03-08T11:58:35;10.70;99.90
11599;DHT22;5855;48.840;9.188;2024-03-08T12:01:03;11.60;99.90
11599;DHT22;5855;48.840;9.188;2024-03-08T12:03:31;12.30;99.90
11599;DHT22;5855;48.840;9.188;2024-03-08T12:05:59;13.00;99.90
11599;DHT22;5855;48.840;9.188;2024-03-08T12:08:27;13.00;99.90
11599;DHT22;5855;48.840;9.188;2024-03-08T12:10:55;13.70;99.70
11599;DHT22;5855;48.840;9.188;2024-03-08T12:13:26;13.10;98.80
11599;DHT22;5855;48.840;9.188;2024-03-08T12:15:56;13.40;99.20
11599;DHT22;5855;48.840;9.188;2024-03-08T12:18:24;14.00;97.70
11599;DHT22;5855;48.840;9.188;2024-03-08T12:20:51;13.40;98.30
11599;DHT22;5855;48.840;9.188;2024-03-08T12:23:18;12.90;99.90
11599;DHT22;5855;48.840;9.188;2024-03-08T12:25:44;14.70;97.80
11599;DHT22;5855;48.840;9.188;2024-03-08T12:28:13;15.10;96.00
11599;DHT22;5855;48.840;9.188;2024-03-08T12:30:46;15.80;93.70
11599;DHT22;5855;48.840;9.188;2024-03-08T12:33:14;15.30;94.00
11599;DHT22;5855;48.840;9.188;2024-03-08T12:35:50;15.40;95.00
11599;DHT22;5855;48.840;9.188;2024-03-08T12:38:20;15.80;91.90
11599;DHT22;5855;48.840;9.188;2024-03-08T12:40:50;15.20;94.00
11599;DHT22;5855;48.840;9.188;2024-03-08T12:43:19;16.20;91.80
11599;DHT22;5855;48.840;9.188;2024-03-08T12:45:47;17.10;90.30
11599;DHT22;5855;48.840;9.188;2024-03-08T12:48:14;17.10;88.00
11599;DHT22;5855;48.840;9.188;2024-03-08T12:50:41;17.80;86.90
11599;DHT22;5855;48.840;9.188;2024-03-08T12:53:10;18.60;82.90
11599;DHT22;5855;48.840;9.188;2024-03-08T12:55:37;18.80;79.40
11599;DHT22;5855;48.840;9.188;2024-03-08T12:58:05;18.60;78.40
11599;DHT22;5855;48.840;9.188;2024-03-08T13:00:33;18.50;73.50
11599;DHT22;5855;48.840;9.188;2024-03-08T13:03:03;18.80;76.10
11599;DHT22;5855;48.840;9.188;2024-03-08T13:05:32;18.50;71.40
11599;DHT22;5855;48.840;9.188;2024-03-08T13:07:59;18.40;74.20
11599;DHT22;5855;48.840;9.188;2024-03-08T13:10:25;18.80;71.80
11599;DHT22;5855;48.840;9.188;2024-03-08T13:12:52;18.50;72.20
11599;DHT22;5855;48.840;9.188;2024-03-08T13:15:20;18.70;68.70
11599;DHT22;5855;48.840;9.188;2024-03-08T13:17:49;19.30;68.30
11599;DHT22;5855;48.840;9.188;2024-03-08T13:20:18;20.60;63.40
11599;DHT22;5855;48.840;9.188;2024-03-08T13:22:45;20.80;61.40
11599;DHT22;5855;48.840;9.188;2024-03-08T13:25:12;20.00;61.70
11599;DHT22;5855;48.840;9.188;2024-03-08T13:27:40;21.30;56.50
11599;DHT22;5855;48.840;9.188;2024-03-08T13:30:08;21.10;57.40
11599;DHT22;5855;48.840;9.188;2024-03-08T13:32:39;21.50;55.90
11599;DHT22;5855;48.840;9.188;2024-03-08T13:35:06;20.90;51.30
11599;DHT22;5855;48.840;9.188;2024-03-08T13:37:39;19.80;55.50
11599;DHT22;5855;48.840;9.188;2024-03-08T13:40:07;21.10;52.70
11599;DHT22;5855;48.840;9.188;2024-03-08T13:42:39;21.40;52.90
11599;DHT22;5855;48.840;9.188;2024-03-08T13:45:08;20.40;53.70
11599;DHT22;5855;48.840;9.188;2024-03-08T13:47:36;19.10;54.30
11599;DHT22;5855;48.840;9.188;2024-03-08T13:50:05;17.90;57.20
11599;DHT22;5855;48.840;9.188;2024-03-08T13:52:33;18.50;57.10
11599;DHT22;5855;48.840;9.188;2024-03-08T13:55:01;18.50;57.00
11599;DHT22;5855;48.840;9.188;2024-03-08T13:57:28;20.40;55.00
11599;DHT22;5855;48.840;9.188;2024-03-08T13:59:55;21.90;49.80
11599;DHT22;5855;48.840;9.188;2024-03-08T14:02:22;23.90;47.20
11599;DHT22;5855;48.840;9.188;2024-03-08T14:04:53;24.40;43.40
11599;DHT22;5855;48.840;9.188;2024-03-08T14:07:20;21.20;43.50
11599;DHT22;5855;48.840;9.188;2024-03-08T14:09:48;21.70;44.70
11599;DHT22;5855;48.840;9.188;2024-03-08T14:12:19;21.90;44.10
11599;DHT22;5855;48.840;9.188;2024-03-08T14:14:46;23.00;42.20
11599;DHT22;5855;48.840;9.188;2024-03-08T14:17:13;23.90;39.30
11599;DHT22;5855;48.840;9.188;2024-03-08T14:19:43;23.30;40.50
11599;DHT22;5855;48.840;9.188;2024-03-08T14:22:10;24.80;36.90
11599;DHT22;5855;48.840;9.188;2024-03-08T14:24:40;23.70;37.40
11599;DHT22;5855;48.840;9.188;2024-03-08T14:27:08;24.30;37.90
11599;DHT22;5855;48.840;9.188;2024-03-08T14:29:36;24.20;35.10
11599;DHT22;5855;48.840;9.188;2024-03-08T14:32:04;23.10;35.20
11599;DHT22;5855;48.840;9.188;2024-03-08T14:34:31;23.50;35.70
11599;DHT22;5855;48.840;9.188;2024-03-08T14:36:59;22.70;36.10
11599;DHT22;5855;48.840;9.188;2024-03-08T14:39:30;21.90;36.30
11599;DHT22;5855;48.840;9.188;2024-03-08T14:41:59;21.50;37.50
11599;DHT22;5855;48.840;9.188;2024-03-08T14:44:26;23.90;35.90
11599;DHT22;5855;48.840;9.188;2024-03-08T14:46:56;24.40;33.70
11599;DHT22;5855;48.840;9.188;2024-03-08T14:49:23;22.00;34.80
11599;DHT22;5855;48.840;9.188;2024-03-08T14:51:51;22.20;37.10
11599;DHT22;5855;48.840;9.188;2024-03-08T14:54:19;24.80;33.90
11599;DHT22;5855;48.840;9.188;2024-03-08T14:56:48;22.80;32.80
11599;DHT22;5855;48.840;9.188;2024-03-08T14:59:16;24.40;35.60
11599;DHT22;5855;48.840;9.188;2024-03-08T15:01:45;22.00;35.20
11599;DHT22;5855;48.840;9.188;2024-03-08T15:04:13;21.50;37.10
11599;DHT22;5855;48.840;9.188;2024-03-08T15:06:41;23.20;35.40
11599;DHT22;5855;48.840;9.188;2024-03-08T15:09:08;25.00;32.90
11599;DHT22;5855;48.840;9.188;2024-03-08T15:11:45;24.50;31.30
11599;DHT22;5855;48.840;9.188;2024-03-08T15:14:12;22.80;33.80
11599;DHT22;5855;48.840;9.188;2024-03-08T15:16:39;26.60;30.50
11599;DHT22;5855;48.840;9.188;2024-03-08T15:19:08;24.60;31.70
11599;DHT22;5855;48.840;9.188;2024-03-08T15:21:39;23.90;32.50
11599;DHT22;5855;48.840;9.188;2024-03-08T15:24:06;24.20;32.40
11599;DHT22;5855;48.840;9.188;2024-03-08T15:26:35;24.40;30.00
11599;DHT22;5855;48.840;9.188;2024-03-08T15:29:02;23.80;30.90
11599;DHT22;5855;48.840;9.188;2024-03-08T15:31:30;21.60;33.30
11599;DHT22;5855;48.840;9.188;2024-03-08T15:33:58;22.70;33.50
11599;DHT22;5855;48.840;9.188;2024-03-08T15:36:30;23.10;32.80
11599;DHT22;5855;48.840;9.188;2024-03-08T15:39:00;24.00;31.90
11599;DHT22;5855;48.840;9.188;2024-03-08T15:41:27;23.80;31.30
11599;DHT22;5855;48.840;9.188;2024-03-08T15:43:55;23.70;31.10
11599;DHT22;5855;48.840;9.188;2024-03-08T15:46:22;24.40;31.70
11599;DHT22;5855;48.840;9.188;2024-03-08T15:48:50;25.30;29.20
11599;DHT22;5855;48.840;9.188;2024-03-08T15:51:18;24.40;29.30
11599;DHT22;5855;48.840;9.188;2024-03-08T15:53:45;21.60;31.90
11599;DHT22;5855;48.840;9.188;2024-03-08T15:56:20;20.80;33.40
11599;DHT22;5855;48.840;9.188;2024-03-08T15:58:48;19.60;36.20
11599;DHT22;5855;48.840;9.188;2024-03-08T16:01:14;20.50;36.00
11599;DHT22;5855;48.840;9.188;2024-03-08T16:03:43;19.40;36.70